sensor_id;sensor_type;location;lat;lon;timestamp;temperature;humidity
38131;DHT22;23947;51.894;4.622;2022-11-13T00:01:35;7.40;1.00
38131;DHT22;23947;51.894;4.622;2022-11-13T00:04:01;7.30;1.00
38131;DHT22;23947;51.894;4.622;2022-11-13T00:06:27;7.30;1.00
38131;DHT22;23947;51.894;4.622;2022-11-13T00:08:53;7.30;1.00
38131;DHT22;23947;51.894;4.622;2022-11-13T00:11:19;7.30;1.00
38131;DHT22;23947;51.894;4.622;2022-11-13T00:13:46;7.30;1.00
38131;DHT22;23947;51.894;4.622;2022-11-13T00:16:15;7.30;1.00
38131;DHT22;23947;51.894;4.622;2022-11-13T00:18:41;7.20;1.00
38131;DHT22;23947;51.894;4.622;2022-11-13T00:21:10;7.30;1.00
38131;DHT22;23947;51.894;4.622;2022-11-13T00:23:36;7.20;1.00
38131;DHT22;23947;51.894;4.622;2022-11-13T00:26:09;7.20;1.00
38131;DHT22;23947;51.894;4.622;2022-11-13T00:28:35;7.30;1.00
38131;DHT22;23947;51.894;4.622;2022-11-13T00:31:02;7.20;1.00
38131;DHT22;23947;51.894;4.622;2022-11-13T00:33:28;7.20;1.00
38131;DHT22;23947;51.894;4.622;2022-11-13T00:36:03;7.20;1.00
38131;DHT22;23947;51.894;4.622;2022-11-13T00:38:30;7.20;1.00
38131;DHT22;23947;51.894;4.622;2022-11-13T00:40:56;7.10;1.00
38131;DHT22;23947;51.894;4.622;2022-11-13T00:43:22;7.10;1.00
38131;DHT22;23947;51.894;4.622;2022-11-13T00:45:48;7.10;1.00
38131;DHT22;23947;51.894;4.622;2022-11-13T00:48:13;7.00;1.00
38131;DHT22;23947;51.894;4.622;2022-11-13T00:50:39;7.00;1.00
38131;DHT22;23947;51.894;4.622;2022-11-13T00:53:04;7.00;1.00
38131;DHT22;23947;51.894;4.622;2022-11-13T00:55:30;7.00;1.00
38131;DHT22;23947;51.894;4.622;2022-11-13T00:57:56;7.00;1.00
38131;DHT22;23947;51.894;4.622;2022-11-13T01:00:21;6.90;1.00
38131;DHT22;23947;51.894;4.622;2022-11-13T01:02:47;6.90;1.00
38131;DHT22;23947;51.894;4.622;2022-11-13T01:05:12;6.90;1.00
38131;DHT22;23947;51.894;4.622;2022-11-13T01:07:38;6.90;1.00
38131;DHT22;23947;51.894;4.622;2022-11-13T01:10:04;6.90;1.00
38131;DHT22;23947;51.894;4.622;2022-11-13T01:12:30;6.90;1.00
38131;DHT22;23947;51.894;4.622;2022-11-13T01:14:56;6.90;1.00
38131;DHT22;23947;51.894;4.622;2022-11-13T01:17:21;6.90;1.00
38131;DHT22;23947;51.894;4.622;2022-11-13T01:19:47;6.90;1.00
38131;DHT22;23947;51.894;4.622;2022-11-13T01:22:13;6.90;1.00
38131;DHT22;23947;51.894;4.622;2022-11-13T01:24:38;6.80;1.00
38131;DHT22;23947;51.894;4.622;2022-11-13T01:27:04;6.80;1.00
38131;DHT22;23947;51.894;4.622;2022-11-13T01:29:32;6.80;1.00
38131;DHT22;23947;51.894;4.622;2022-11-13T01:31:58;6.80;1.00
38131;DHT22;23947;51.894;4.622;2022-11-13T01:34:24;6.90;1.00
38131;DHT22;23947;51.894;4.622;2022-11-13T01:36:50;6.90;1.00
38131;DHT22;23947;51.894;4.622;2022-11-13T01:39:15;6.90;1.00
38131;DHT22;23947;51.894;4.622;2022-11-13T01:41:41;6.90;1.00
38131;DHT22;23947;51.894;4.622;2022-11-13T01:44:12;6.90;1.00
38131;DHT22;23947;51.894;4.622;2022-11-13T01:46:44;6.90;1.00
38131;DHT22;23947;51.894;4.622;2022-11-13T01:49:29;6.90;1.00
38131;DHT22;23947;51.894;4.622;2022-11-13T01:52:06;6.90;1.00
38131;DHT22;23947;51.894;4.622;2022-11-13T01:54:36;6.90;1.00
38131;DHT22;23947;51.894;4.622;2022-11-13T01:57:03;6.90;1.00
38131;DHT22;23947;51.894;4.622;2022-11-13T01:59:31;6.90;1.00
38131;DHT22;23947;51.894;4.622;2022-11-13T02:01:58;6.90;1.00
38131;DHT22;23947;51.894;4.622;2022-11-13T02:04:24;6.90;1.00
38131;DHT22;23947;51.894;4.622;2022-11-13T02:06:54;6.80;1.00
38131;DHT22;23947;51.894;4.622;2022-11-13T02:09:26;6.80;1.00
38131;DHT22;23947;51.894;4.622;2022-11-13T02:11:53;6.80;1.00
38131;DHT22;23947;51.894;4.622;2022-11-13T02:14:21;6.70;1.00
38131;DHT22;23947;51.894;4.622;2022-11-13T02:16:51;6.70;1.00
38131;DHT22;23947;51.894;4.622;2022-11-13T02:19:29;6.70;1.00
38131;DHT22;23947;51.894;4.622;2022-11-13T02:24:42;6.60;1.00
38131;DHT22;23947;51.894;4.622;2022-11-13T02:27:34;6.60;1.00
38131;DHT22;23947;51.894;4.622;2022-11-13T02:30:15;6.60;1.00
38131;DHT22;23947;51.894;4.622;2022-11-13T02:32:46;6.50;1.00
38131;DHT22;23947;51.894;4.622;2022-11-13T02:35:35;6.50;1.00
38131;DHT22;23947;51.894;4.622;2022-11-13T02:38:02;6.50;1.00
38131;DHT22;23947;51.894;4.622;2022-11-13T02:40:29;6.50;1.00
38131;DHT22;23947;51.894;4.622;2022-11-13T02:42:55;6.50;1.00
38131;DHT22;23947;51.894;4.622;2022-11-13T02:45:21;6.50;1.00
38131;DHT22;23947;51.894;4.622;2022-11-13T02:47:47;6.50;1.00
38131;DHT22;23947;51.894;4.622;2022-11-13T02:50:13;6.40;1.00
38131;DHT22;23947;51.894;4.622;2022-11-13T02:52:38;6.40;1.00
38131;DHT22;23947;51.894;4.622;2022-11-13T02:55:04;6.40;1.00
38131;DHT22;23947;51.894;4.622;2022-11-13T02:57:30;6.40;1.00
38131;DHT22;23947;51.894;4.622;2022-11-13T02:59:56;6.30;1.00
38131;DHT22;23947;51.894;4.622;2022-11-13T03:02:21;6.30;1.00
38131;DHT22;23947;51.894;4.622;2022-11-13T03:04:47;6.30;1.00
38131;DHT22;23947;51.894;4.622;2022-11-13T03:07:13;6.30;1.00
38131;DHT22;23947;51.894;4.622;2022-11-13T03:09:39;6.30;1.00
38131;DHT22;23947;51.894;4.622;2022-11-13T03:12:06;6.30;1.00
38131;DHT22;23947;51.894;4.622;2022-11-13T03:14:32;6.30;1.00
38131;DHT22;23947;51.894;4.622;2022-11-13T03:16:58;6.20;1.00
38131;DHT22;23947;51.894;4.622;2022-11-13T03:19:23;6.20;1.00
38131;DHT22;23947;51.894;4.622;2022-11-13T03:21:49;6.30;1.00
38131;DHT22;23947;51.894;4.622;2022-11-13T03:24:15;6.20;1.00
38131;DHT22;23947;51.894;4.622;2022-11-13T03:26:41;6.20;1.00
38131;DHT22;23947;51.894;4.622;2022-11-13T03:29:06;6.20;1.00
38131;DHT22;23947;51.894;4.622;2022-11-13T03:31:32;6.20;1.00
38131;DHT22;23947;51.894;4.622;2022-11-13T03:33:57;6.20;1.00
38131;DHT22;23947;51.894;4.622;2022-11-13T03:36:23;6.10;1.00
38131;DHT22;23947;51.894;4.622;2022-11-13T03:38:49;6.10;1.00
38131;DHT22;23947;51.894;4.622;2022-11-13T03:41:15;6.10;1.00
38131;DHT22;23947;51.894;4.622;2022-11-13T03:43:41;6.10;1.00
38131;DHT22;23947;51.894;4.622;2022-11-13T03:46:06;6.20;1.00
38131;DHT22;23947;51.894;4.622;2022-11-13T03:48:32;6.20;1.00
38131;DHT22;23947;51.894;4.622;2022-11-13T03:50:58;6.20;1.00
38131;DHT22;23947;51.894;4.622;2022-11-13T03:53:23;6.20;1.00
38131;DHT22;23947;51.894;4.622;2022-11-13T03:55:49;6.20;1.00
38131;DHT22;23947;51.894;4.622;2022-11-13T03:58:15;6.20;1.00
38131;DHT22;23947;51.894;4.622;2022-11-13T04:00:42;6.20;1.00
38131;DHT22;23947;51.894;4.622;2022-11-13T04:03:08;6.10;1.00
38131;DHT22;23947;51.894;4.622;2022-11-13T04:05:34;6.10;1.00
38131;DHT22;23947;51.894;4.622;2022-11-13T04:07:59;6.10;1.00
38131;DHT22;23947;51.894;4.622;2022-11-13T04:10:25;6.10;1.00
38131;DHT22;23947;51.894;4.622;2022-11-13T04:12:51;6.10;1.00
38131;DHT22;23947;51.894;4.622;2022-11-13T04:15:17;6.10;1.00
38131;DHT22;23947;51.894;4.622;2022-11-13T04:17:42;6.10;1.00
38131;DHT22;23947;51.894;4.622;2022-11-13T04:20:09;6.10;1.00
38131;DHT22;23947;51.894;4.622;2022-11-13T04:22:35;6.10;1.00
38131;DHT22;23947;51.894;4.622;2022-11-13T04:25:00;6.10;1.00
38131;DHT22;23947;51.894;4.622;2022-11-13T04:27:26;6.10;1.00
38131;DHT22;23947;51.894;4.622;2022-11-13T04:29:52;6.10;1.00
38131;DHT22;23947;51.894;4.622;2022-11-13T04:32:17;6.10;1.00
38131;DHT22;23947;51.894;4.622;2022-11-13T04:34:43;6.10;1.00
38131;DHT22;23947;51.894;4.622;2022-11-13T04:37:08;6.10;1.00
38131;DHT22;23947;51.894;4.622;2022-11-13T04:39:34;6.10;1.00
38131;DHT22;23947;51.894;4.622;2022-11-13T04:42:00;6.10;1.00
38131;DHT22;23947;51.894;4.622;2022-11-13T04:44:44;6.10;1.00
38131;DHT22;23947;51.894;4.622;2022-11-13T04:47:11;6.10;1.00
38131;DHT22;23947;51.894;4.622;2022-11-13T04:49:37;6.10;1.00
38131;DHT22;23947;51.894;4.622;2022-11-13T04:52:02;6.10;1.00
38131;DHT22;23947;51.894;4.622;2022-11-13T04:54:28;6.10;1.00
38131;DHT22;23947;51.894;4.622;2022-11-13T04:56:54;6.10;1.00
38131;DHT22;23947;51.894;4.622;2022-11-13T04:59:19;6.10;1.00
38131;DHT22;23947;51.894;4.622;2022-11-13T05:01:45;6.10;1.00
38131;DHT22;23947;51.894;4.622;2022-11-13T05:04:12;6.00;1.00
38131;DHT22;23947;51.894;4.622;2022-11-13T05:06:38;6.00;1.00
38131;DHT22;23947;51.894;4.622;2022-11-13T05:09:03;6.00;1.00
38131;DHT22;23947;51.894;4.622;2022-11-13T05:11:29;6.00;1.00
38131;DHT22;23947;51.894;4.622;2022-11-13T05:13:55;6.00;1.00
38131;DHT22;23947;51.894;4.622;2022-11-13T05:16:20;5.90;1.00
38131;DHT22;23947;51.894;4.622;2022-11-13T05:18:46;5.90;1.00
38131;DHT22;23947;51.894;4.622;2022-11-13T05:21:12;5.90;1.00
38131;DHT22;23947;51.894;4.622;2022-11-13T05:23:38;5.90;1.00
38131;DHT22;23947;51.894;4.622;2022-11-13T05:26:12;5.80;1.00
38131;DHT22;23947;51.894;4.622;2022-11-13T05:28:38;5.80;1.00
38131;DHT22;23947;51.894;4.622;2022-11-13T05:31:12;5.70;1.00
38131;DHT22;23947;51.894;4.622;2022-11-13T05:33:39;5.70;1.00
38131;DHT22;23947;51.894;4.622;2022-11-13T05:36:10;5.70;1.00
38131;DHT22;23947;51.894;4.622;2022-11-13T05:38:37;5.70;1.00
38131;DHT22;23947;51.894;4.622;2022-11-13T05:41:07;5.70;1.00
38131;DHT22;23947;51.894;4.622;2022-11-13T05:43:34;5.70;1.00
38131;DHT22;23947;51.894;4.622;2022-11-13T05:48:26;5.60;1.00
38131;DHT22;23947;51.894;4.622;2022-11-13T05:50:52;5.60;1.00
38131;DHT22;23947;51.894;4.622;2022-11-13T05:53:18;5.60;1.00
38131;DHT22;23947;51.894;4.622;2022-11-13T05:55:43;5.60;1.00
38131;DHT22;23947;51.894;4.622;2022-11-13T05:58:09;5.50;1.00
38131;DHT22;23947;51.894;4.622;2022-11-13T06:00:36;5.60;1.00
38131;DHT22;23947;51.894;4.622;2022-11-13T06:03:02;5.50;1.00
38131;DHT22;23947;51.894;4.622;2022-11-13T06:05:27;5.60;1.00
38131;DHT22;23947;51.894;4.622;2022-11-13T06:07:53;5.60;1.00
38131;DHT22;23947;51.894;4.622;2022-11-13T06:10:18;5.60;1.00
38131;DHT22;23947;51.894;4.622;2022-11-13T06:12:44;5.60;1.00
38131;DHT22;23947;51.894;4.622;2022-11-13T06:15:09;5.60;1.00
38131;DHT22;23947;51.894;4.622;2022-11-13T06:17:35;5.60;1.00
38131;DHT22;23947;51.894;4.622;2022-11-13T06:20:01;5.60;1.00
38131;DHT22;23947;51.894;4.622;2022-11-13T06:22:26;5.70;1.00
38131;DHT22;23947;51.894;4.622;2022-11-13T06:24:52;5.60;1.00
38131;DHT22;23947;51.894;4.622;2022-11-13T06:27:17;5.70;1.00
38131;DHT22;23947;51.894;4.622;2022-11-13T06:29:43;5.70;1.00
38131;DHT22;23947;51.894;4.622;2022-11-13T06:32:09;5.70;1.00
38131;DHT22;23947;51.894;4.622;2022-11-13T06:34:34;5.70;1.00
38131;DHT22;23947;51.894;4.622;2022-11-13T06:37:00;5.70;1.00
38131;DHT22;23947;51.894;4.622;2022-11-13T06:39:25;5.80;1.00
38131;DHT22;23947;51.894;4.622;2022-11-13T06:41:51;5.80;1.00
38131;DHT22;23947;51.894;4.622;2022-11-13T06:44:17;5.70;1.00
38131;DHT22;23947;51.894;4.622;2022-11-13T06:46:42;5.80;1.00
38131;DHT22;23947;51.894;4.622;2022-11-13T06:49:08;5.70;1.00
38131;DHT22;23947;51.894;4.622;2022-11-13T06:51:33;5.70;1.00
38131;DHT22;23947;51.894;4.622;2022-11-13T06:53:59;5.70;1.00
38131;DHT22;23947;51.894;4.622;2022-11-13T06:56:25;5.70;1.00
38131;DHT22;23947;51.894;4.622;2022-11-13T06:58:52;5.70;1.00
38131;DHT22;23947;51.894;4.622;2022-11-13T07:01:20;5.70;1.00
38131;DHT22;23947;51.894;4.622;2022-11-13T07:03:46;5.60;1.00
38131;DHT22;23947;51.894;4.622;2022-11-13T07:06:15;5.60;1.00
38131;DHT22;23947;51.894;4.622;2022-11-13T07:08:41;5.60;1.00
38131;DHT22;23947;51.894;4.622;2022-11-13T07:11:10;5.60;1.00
38131;DHT22;23947;51.894;4.622;2022-11-13T07:13:37;5.60;1.00
38131;DHT22;23947;51.894;4.622;2022-11-13T07:16:05;5.60;1.00
38131;DHT22;23947;51.894;4.622;2022-11-13T07:18:32;5.60;1.00
38131;DHT22;23947;51.894;4.622;2022-11-13T07:21:08;5.60;1.00
38131;DHT22;23947;51.894;4.622;2022-11-13T07:23:35;5.60;1.00
38131;DHT22;23947;51.894;4.622;2022-11-13T07:26:16;5.60;1.00
38131;DHT22;23947;51.894;4.622;2022-11-13T07:28:42;5.60;1.00
38131;DHT22;23947;51.894;4.622;2022-11-13T07:31:10;5.60;1.00
38131;DHT22;23947;51.894;4.622;2022-11-13T07:33:36;5.60;1.00
38131;DHT22;23947;51.894;4.622;2022-11-13T07:36:05;5.60;1.00
38131;DHT22;23947;51.894;4.622;2022-11-13T07:38:33;5.60;1.00
38131;DHT22;23947;51.894;4.622;2022-11-13T07:41:02;5.70;1.00
38131;DHT22;23947;51.894;4.622;2022-11-13T07:43:28;5.70;1.00
38131;DHT22;23947;51.894;4.622;2022-11-13T07:49:19;5.70;1.00
38131;DHT22;23947;51.894;4.622;2022-11-13T07:51:48;5.70;1.00
38131;DHT22;23947;51.894;4.622;2022-11-13T07:54:35;5.80;1.00
38131;DHT22;23947;51.894;4.622;2022-11-13T07:57:03;5.80;1.00
38131;DHT22;23947;51.894;4.622;2022-11-13T07:59:38;5.80;1.00
38131;DHT22;23947;51.894;4.622;2022-11-13T08:02:05;5.80;1.00
38131;DHT22;23947;51.894;4.622;2022-11-13T08:04:30;5.90;1.00
38131;DHT22;23947;51.894;4.622;2022-11-13T08:07:14;5.90;1.00
38131;DHT22;23947;51.894;4.622;2022-11-13T08:09:40;5.90;1.00
38131;DHT22;23947;51.894;4.622;2022-11-13T08:12:14;6.00;1.00
38131;DHT22;23947;51.894;4.622;2022-11-13T08:15:01;6.00;1.00
38131;DHT22;23947;51.894;4.622;2022-11-13T08:17:27;6.10;1.00
38131;DHT22;23947;51.894;4.622;2022-11-13T08:23:57;6.20;1.00
38131;DHT22;23947;51.894;4.622;2022-11-13T08:26:23;6.30;1.00
38131;DHT22;23947;51.894;4.622;2022-11-13T08:28:49;6.40;1.00
38131;DHT22;23947;51.894;4.622;2022-11-13T08:31:15;6.50;1.00
38131;DHT22;23947;51.894;4.622;2022-11-13T08:33:44;6.50;1.00
38131;DHT22;23947;51.894;4.622;2022-11-13T08:36:10;6.60;1.00
38131;DHT22;23947;51.894;4.622;2022-11-13T08:38:38;6.70;1.00
38131;DHT22;23947;51.894;4.622;2022-11-13T08:41:05;6.70;1.00
38131;DHT22;23947;51.894;4.622;2022-11-13T08:46:29;6.80;1.00
38131;DHT22;23947;51.894;4.622;2022-11-13T08:52:32;7.00;1.00
38131;DHT22;23947;51.894;4.622;2022-11-13T08:54:59;7.10;1.00
38131;DHT22;23947;51.894;4.622;2022-11-13T08:57:37;7.20;1.00
38131;DHT22;23947;51.894;4.622;2022-11-13T09:00:05;7.30;1.00
38131;DHT22;23947;51.894;4.622;2022-11-13T09:02:31;7.40;1.00
38131;DHT22;23947;51.894;4.622;2022-11-13T09:05:02;7.50;1.00
38131;DHT22;23947;51.894;4.622;2022-11-13T09:07:31;7.60;1.00
38131;DHT22;23947;51.894;4.622;2022-11-13T09:09:57;7.70;1.00
38131;DHT22;23947;51.894;4.622;2022-11-13T09:12:23;7.70;1.00
38131;DHT22;23947;51.894;4.622;2022-11-13T09:14:49;7.80;1.00
38131;DHT22;23947;51.894;4.622;2022-11-13T09:17:15;7.80;1.00
38131;DHT22;23947;51.894;4.622;2022-11-13T09:19:42;7.90;1.00
38131;DHT22;23947;51.894;4.622;2022-11-13T09:22:07;7.90;1.00
38131;DHT22;23947;51.894;4.622;2022-11-13T09:24:33;8.00;1.00
38131;DHT22;23947;51.894;4.622;2022-11-13T09:26:59;8.10;1.00
38131;DHT22;23947;51.894;4.622;2022-11-13T09:29:25;8.10;1.00
38131;DHT22;23947;51.894;4.622;2022-11-13T09:31:53;8.20;1.00
38131;DHT22;23947;51.894;4.622;2022-11-13T09:34:20;8.20;1.00
38131;DHT22;23947;51.894;4.622;2022-11-13T09:36:46;8.30;1.00
38131;DHT22;23947;51.894;4.622;2022-11-13T09:39:11;8.40;1.00
38131;DHT22;23947;51.894;4.622;2022-11-13T09:41:41;8.40;1.00
38131;DHT22;23947;51.894;4.622;2022-11-13T09:44:23;8.40;1.00
38131;DHT22;23947;51.894;4.622;2022-11-13T09:47:16;8.50;1.00
38131;DHT22;23947;51.894;4.622;2022-11-13T09:49:56;8.50;1.00
38131;DHT22;23947;51.894;4.622;2022-11-13T09:52:43;8.60;1.00
38131;DHT22;23947;51.894;4.622;2022-11-13T09:55:14;8.60;1.00
38131;DHT22;23947;51.894;4.622;2022-11-13T09:58:33;8.70;1.00
38131;DHT22;23947;51.894;4.622;2022-11-13T10:00:33;8.80;1.00
38131;DHT22;23947;51.894;4.622;2022-11-13T10:03:17;8.90;1.00
38131;DHT22;23947;51.894;4.622;2022-11-13T10:11:20;9.20;1.00
38131;DHT22;23947;51.894;4.622;2022-11-13T10:13:52;9.20;1.00
38131;DHT22;23947;51.894;4.622;2022-11-13T10:16:39;9.20;1.00
38131;DHT22;23947;51.894;4.622;2022-11-13T10:19:28;9.30;1.00
38131;DHT22;23947;51.894;4.622;2022-11-13T10:22:01;9.30;1.00
38131;DHT22;23947;51.894;4.622;2022-11-13T10:27:26;9.50;1.00
38131;DHT22;23947;51.894;4.622;2022-11-13T10:29:52;9.50;1.00
38131;DHT22;23947;51.894;4.622;2022-11-13T10:32:23;9.50;1.00
38131;DHT22;23947;51.894;4.622;2022-11-13T10:34:57;9.60;1.00
38131;DHT22;23947;51.894;4.622;2022-11-13T10:37:54;9.60;1.00
38131;DHT22;23947;51.894;4.622;2022-11-13T10:40:28;9.70;1.00
38131;DHT22;23947;51.894;4.622;2022-11-13T10:43:03;9.70;1.00
38131;DHT22;23947;51.894;4.622;2022-11-13T10:45:28;9.80;1.00
38131;DHT22;23947;51.894;4.622;2022-11-13T10:47:54;9.80;1.00
38131;DHT22;23947;51.894;4.622;2022-11-13T10:52:47;9.90;1.00
38131;DHT22;23947;51.894;4.622;2022-11-13T10:57:42;10.00;1.00
38131;DHT22;23947;51.894;4.622;2022-11-13T11:03:37;10.10;1.00
38131;DHT22;23947;51.894;4.622;2022-11-13T11:06:12;10.10;1.00
38131;DHT22;23947;51.894;4.622;2022-11-13T11:08:38;10.20;1.00
38131;DHT22;23947;51.894;4.622;2022-11-13T11:11:13;10.20;1.00
38131;DHT22;23947;51.894;4.622;2022-11-13T11:14:24;10.30;1.00
38131;DHT22;23947;51.894;4.622;2022-11-13T11:16:52;10.30;1.00
38131;DHT22;23947;51.894;4.622;2022-11-13T11:19:38;10.40;1.00
38131;DHT22;23947;51.894;4.622;2022-11-13T11:22:12;10.40;1.00
38131;DHT22;23947;51.894;4.622;2022-11-13T11:24:45;10.50;1.00
38131;DHT22;23947;51.894;4.622;2022-11-13T11:27:27;10.60;1.00
38131;DHT22;23947;51.894;4.622;2022-11-13T11:35:15;10.70;1.00
38131;DHT22;23947;51.894;4.622;2022-11-13T11:41:13;10.80;1.00
38131;DHT22;23947;51.894;4.622;2022-11-13T11:43:47;10.90;1.00
38131;DHT22;23947;51.894;4.622;2022-11-13T11:46:18;10.90;1.00
38131;DHT22;23947;51.894;4.622;2022-11-13T11:48:46;10.90;1.00
38131;DHT22;23947;51.894;4.622;2022-11-13T11:51:33;10.90;1.00
38131;DHT22;23947;51.894;4.622;2022-11-13T11:56:41;10.90;1.00
38131;DHT22;23947;51.894;4.622;2022-11-13T11:59:13;10.90;1.00
38131;DHT22;23947;51.894;4.622;2022-11-13T12:10:20;11.10;1.00
38131;DHT22;23947;51.894;4.622;2022-11-13T12:18:39;11.40;1.00
38131;DHT22;23947;51.894;4.622;2022-11-13T12:28:03;11.60;1.00
38131;DHT22;23947;51.894;4.622;2022-11-13T12:31:02;11.70;1.00
38131;DHT22;23947;51.894;4.622;2022-11-13T12:36:13;12.00;1.00
38131;DHT22;23947;51.894;4.622;2022-11-13T12:39:03;12.00;1.00
38131;DHT22;23947;51.894;4.622;2022-11-13T12:41:51;12.00;1.00
38131;DHT22;23947;51.894;4.622;2022-11-13T12:44:28;12.00;1.00
38131;DHT22;23947;51.894;4.622;2022-11-13T12:46:56;12.00;1.00
38131;DHT22;23947;51.894;4.622;2022-11-13T12:49:42;12.00;1.00
38131;DHT22;23947;51.894;4.622;2022-11-13T12:55:29;11.90;1.00
38131;DHT22;23947;51.894;4.622;2022-11-13T12:58:07;11.90;1.00
38131;DHT22;23947;51.894;4.622;2022-11-13T13:00:35;11.90;1.00
38131;DHT22;23947;51.894;4.622;2022-11-13T13:16:34;11.90;1.00
38131;DHT22;23947;51.894;4.622;2022-11-13T13:19:29;11.90;1.00
38131;DHT22;23947;51.894;4.622;2022-11-13T13:21:55;11.90;1.00
38131;DHT22;23947;51.894;4.622;2022-11-13T13:24:30;11.90;1.00
38131;DHT22;23947;51.894;4.622;2022-11-13T13:26:56;11.90;1.00
38131;DHT22;23947;51.894;4.622;2022-11-13T13:29:24;11.90;1.00
38131;DHT22;23947;51.894;4.622;2022-11-13T13:32:15;11.90;1.00
38131;DHT22;23947;51.894;4.622;2022-11-13T13:35:13;11.90;1.00
38131;DHT22;23947;51.894;4.622;2022-11-13T13:40:33;11.90;1.00
38131;DHT22;23947;51.894;4.622;2022-11-13T13:43:26;11.90;1.00
38131;DHT22;23947;51.894;4.622;2022-11-13T13:46:18;12.00;1.00
38131;DHT22;23947;51.894;4.622;2022-11-13T13:48:49;12.00;1.00
38131;DHT22;23947;51.894;4.622;2022-11-13T13:51:30;12.00;1.00
38131;DHT22;23947;51.894;4.622;2022-11-13T13:53:59;12.00;1.00
38131;DHT22;23947;51.894;4.622;2022-11-13T13:56:26;12.00;1.00
38131;DHT22;23947;51.894;4.622;2022-11-13T13:58:55;12.10;1.00
38131;DHT22;23947;51.894;4.622;2022-11-13T14:01:34;12.10;1.00
38131;DHT22;23947;51.894;4.622;2022-11-13T14:04:13;12.10;1.00
38131;DHT22;23947;51.894;4.622;2022-11-13T14:06:49;12.20;1.00
38131;DHT22;23947;51.894;4.622;2022-11-13T14:09:24;12.20;1.00
38131;DHT22;23947;51.894;4.622;2022-11-13T14:14:23;12.20;1.00
38131;DHT22;23947;51.894;4.622;2022-11-13T14:17:23;12.20;1.00
38131;DHT22;23947;51.894;4.622;2022-11-13T14:19:54;12.20;1.00
38131;DHT22;23947;51.894;4.622;2022-11-13T14:22:27;12.20;1.00
38131;DHT22;23947;51.894;4.622;2022-11-13T14:24:56;12.20;1.00
38131;DHT22;23947;51.894;4.622;2022-11-13T14:27:26;12.30;1.00
38131;DHT22;23947;51.894;4.622;2022-11-13T14:29:59;12.30;1.00
38131;DHT22;23947;51.894;4.622;2022-11-13T14:32:37;12.30;1.00
38131;DHT22;23947;51.894;4.622;2022-11-13T14:35:28;12.20;1.00
38131;DHT22;23947;51.894;4.622;2022-11-13T14:38:23;12.20;1.00
38131;DHT22;23947;51.894;4.622;2022-11-13T14:40:57;12.20;1.00
38131;DHT22;23947;51.894;4.622;2022-11-13T14:43:24;12.20;1.00
38131;DHT22;23947;51.894;4.622;2022-11-13T14:45:59;12.10;1.00
38131;DHT22;23947;51.894;4.622;2022-11-13T14:48:36;12.20;1.00
38131;DHT22;23947;51.894;4.622;2022-11-13T14:51:04;12.10;1.00
38131;DHT22;23947;51.894;4.622;2022-11-13T14:53:35;12.10;1.00
38131;DHT22;23947;51.894;4.622;2022-11-13T14:56:14;12.10;1.00
38131;DHT22;23947;51.894;4.622;2022-11-13T14:58:44;12.10;1.00
38131;DHT22;23947;51.894;4.622;2022-11-13T15:01:23;12.00;1.00
38131;DHT22;23947;51.894;4.622;2022-11-13T15:03:50;12.00;1.00
38131;DHT22;23947;51.894;4.622;2022-11-13T15:06:22;11.90;1.00
38131;DHT22;23947;51.894;4.622;2022-11-13T15:08:49;11.90;1.00
38131;DHT22;23947;51.894;4.622;2022-11-13T15:11:17;11.90;1.00
38131;DHT22;23947;51.894;4.622;2022-11-13T15:14:08;11.80;1.00
38131;DHT22;23947;51.894;4.622;2022-11-13T15:17:04;11.80;1.00
38131;DHT22;23947;51.894;4.622;2022-11-13T15:19:54;11.70;1.00
38131;DHT22;23947;51.894;4.622;2022-11-13T15:22:19;11.70;1.00
38131;DHT22;23947;51.894;4.622;2022-11-13T15:24:45;11.60;1.00
38131;DHT22;23947;51.894;4.622;2022-11-13T15:27:29;11.60;1.00
38131;DHT22;23947;51.894;4.622;2022-11-13T15:29:55;11.50;1.00
38131;DHT22;23947;51.894;4.622;2022-11-13T15:32:45;11.50;1.00
38131;DHT22;23947;51.894;4.622;2022-11-13T15:35:29;11.50;1.00
38131;DHT22;23947;51.894;4.622;2022-11-13T15:38:15;11.40;1.00
38131;DHT22;23947;51.894;4.622;2022-11-13T15:40:41;11.30;1.00
38131;DHT22;23947;51.894;4.622;2022-11-13T15:43:17;11.20;1.00
38131;DHT22;23947;51.894;4.622;2022-11-13T15:46:12;11.10;1.00
38131;DHT22;23947;51.894;4.622;2022-11-13T15:49:18;11.00;1.00
38131;DHT22;23947;51.894;4.622;2022-11-13T15:51:58;10.90;1.00
38131;DHT22;23947;51.894;4.622;2022-11-13T15:54:28;10.80;1.00
38131;DHT22;23947;51.894;4.622;2022-11-13T15:56:55;10.70;1.00
38131;DHT22;23947;51.894;4.622;2022-11-13T15:59:21;10.60;1.00
38131;DHT22;23947;51.894;4.622;2022-11-13T16:01:47;10.60;1.00
38131;DHT22;23947;51.894;4.622;2022-11-13T16:04:13;10.40;1.00
38131;DHT22;23947;51.894;4.622;2022-11-13T16:06:41;10.40;1.00
38131;DHT22;23947;51.894;4.622;2022-11-13T16:09:12;10.30;1.00
38131;DHT22;23947;51.894;4.622;2022-11-13T16:11:39;10.20;1.00
38131;DHT22;23947;51.894;4.622;2022-11-13T16:14:05;10.10;1.00
38131;DHT22;23947;51.894;4.622;2022-11-13T16:16:33;10.10;1.00
38131;DHT22;23947;51.894;4.622;2022-11-13T16:19:00;10.00;1.00
38131;DHT22;23947;51.894;4.622;2022-11-13T16:21:28;9.90;1.00
38131;DHT22;23947;51.894;4.622;2022-11-13T16:23:54;9.80;1.00
38131;DHT22;23947;51.894;4.622;2022-11-13T16:26:23;9.80;1.00
38131;DHT22;23947;51.894;4.622;2022-11-13T16:28:51;9.70;1.00
38131;DHT22;23947;51.894;4.622;2022-11-13T16:31:17;9.70;1.00
38131;DHT22;23947;51.894;4.622;2022-11-13T16:33:43;9.60;1.00
38131;DHT22;23947;51.894;4.622;2022-11-13T16:36:27;9.60;1.00
38131;DHT22;23947;51.894;4.622;2022-11-13T16:38:53;9.50;1.00
38131;DHT22;23947;51.894;4.622;2022-11-13T16:41:19;9.40;1.00
38131;DHT22;23947;51.894;4.622;2022-11-13T16:43:45;9.40;1.00
38131;DHT22;23947;51.894;4.622;2022-11-13T16:48:42;9.30;1.00
38131;DHT22;23947;51.894;4.622;2022-11-13T16:51:07;9.20;1.00
38131;DHT22;23947;51.894;4.622;2022-11-13T16:53:33;9.10;1.00
38131;DHT22;23947;51.894;4.622;2022-11-13T16:55:59;9.10;1.00
38131;DHT22;23947;51.894;4.622;2022-11-13T16:58:25;9.00;1.00
38131;DHT22;23947;51.894;4.622;2022-11-13T17:00:51;9.00;1.00
38131;DHT22;23947;51.894;4.622;2022-11-13T17:03:16;8.90;1.00
38131;DHT22;23947;51.894;4.622;2022-11-13T17:05:42;8.90;1.00
38131;DHT22;23947;51.894;4.622;2022-11-13T17:08:11;8.80;1.00
38131;DHT22;23947;51.894;4.622;2022-11-13T17:10:36;8.80;1.00
38131;DHT22;23947;51.894;4.622;2022-11-13T17:13:02;8.70;1.00
38131;DHT22;23947;51.894;4.622;2022-11-13T17:15:28;8.60;1.00
38131;DHT22;23947;51.894;4.622;2022-11-13T17:17:56;8.70;1.00
38131;DHT22;23947;51.894;4.622;2022-11-13T17:20:22;8.60;1.00
38131;DHT22;23947;51.894;4.622;2022-11-13T17:22:47;8.60;1.00
38131;DHT22;23947;51.894;4.622;2022-11-13T17:25:15;8.60;1.00
38131;DHT22;23947;51.894;4.622;2022-11-13T17:27:41;8.50;1.00
38131;DHT22;23947;51.894;4.622;2022-11-13T17:30:07;8.40;1.00
38131;DHT22;23947;51.894;4.622;2022-11-13T17:32:33;8.40;1.00
38131;DHT22;23947;51.894;4.622;2022-11-13T17:34:58;8.40;1.00
38131;DHT22;23947;51.894;4.622;2022-11-13T17:37:27;8.30;1.00
38131;DHT22;23947;51.894;4.622;2022-11-13T17:39:53;8.20;1.00
38131;DHT22;23947;51.894;4.622;2022-11-13T17:42:18;8.20;1.00
38131;DHT22;23947;51.894;4.622;2022-11-13T17:44:44;8.20;1.00
38131;DHT22;23947;51.894;4.622;2022-11-13T17:47:12;8.20;1.00
38131;DHT22;23947;51.894;4.622;2022-11-13T17:49:38;8.20;1.00
38131;DHT22;23947;51.894;4.622;2022-11-13T17:52:04;8.20;1.00